^^
Grace C. Lehan Memorial Weather Station Historical Data
Daily Summary for July 05, 2022 Units:  English    Metric   Both
Daily Weekly Monthly Yearly
  High: Low: Average:
Temperature: 69.9 °F 67.8 °F 68.4 °F
Dew Point: 60.8 °F 59.7 °F 60.2 °F
Humidity: 78% 70% 75%
Wind Speed: 0mph 0mph 0mph
Wind Gust: 0mph - -
Wind- -
Pressure: 30.06 in 30.05 in -
Precipitation: 0.00 in    
 
 
Tabular Data for July 05, 2022
Time Temperature Dew Point Pressure Wind Wind Speed Wind Gust Humidity Rainfall Rate (Hourly) solar
00:04 69.9 °F 59.7 °F 30.06 in Calm     70% 0.00 in 0 W/m2
00:09 69.9 °F 59.8 °F 30.06 in Calm     70.5% 0.00 in 0 W/m2
00:14 69.7 °F 59.9 °F 30.06 in Calm     71% 0.00 in 0 W/m2
00:19 69.6 °F 59.8 °F 30.06 in Calm     71% 0.00 in 0 W/m2
00:24 69.4 °F 59.9 °F 30.06 in Calm     71.6% 0.00 in 0 W/m2
00:29 69.4 °F 60.2 °F 30.06 in Calm     72.6% 0.00 in 0 W/m2
00:34 69.3 °F 59.9 °F 30.06 in Calm     72.1% 0.00 in 0 W/m2
00:39 69.2 °F 60.1 °F 30.06 in Calm     72.7% 0.00 in 0 W/m2
00:44 69.1 °F 60.1 °F 30.06 in Calm     73% 0.00 in 0 W/m2
00:49 69 °F 60 °F 30.06 in Calm     73% 0.00 in 0 W/m2
00:54 68.9 °F 59.9 °F 30.06 in Calm     73.1% 0.00 in 0 W/m2
00:59 68.8 °F 60.2 °F 30.06 in Calm     74% 0.00 in 0 W/m2
01:04 68.7 °F 60.1 °F 30.06 in Calm     74% 0.00 in 0 W/m2
01:09 68.6 °F 60 °F 30.06 in Calm     74% 0.00 in 0 W/m2
01:14 68.5 °F 59.9 °F 30.06 in Calm     74% 0.00 in 0 W/m2
01:19 68.5 °F 59.9 °F 30.06 in Calm     74% 0.00 in 0 W/m2
01:24 68.4 °F 60.2 °F 30.06 in Calm     75% 0.00 in 0 W/m2
01:29 68.3 °F 60.1 °F 30.06 in Calm     75% 0.00 in 0 W/m2
01:34 68.3 °F 60.1 °F 30.06 in Calm     75% 0.00 in 0 W/m2
01:39 68.2 °F 60 °F 30.06 in Calm     75% 0.00 in 0 W/m2
01:44 68.1 °F 60 °F 30.06 in Calm     75.2% 0.00 in 0 W/m2
01:49 68.1 °F 60.2 °F 30.06 in Calm     76% 0.00 in 0 W/m2
01:54 68 °F 60.1 °F 30.06 in Calm     76% 0.00 in 0 W/m2
01:59 67.9 °F 60.1 °F 30.06 in Calm     76.1% 0.00 in 0 W/m2
02:04 67.9 °F 60.3 °F 30.06 in Calm     76.7% 0.00 in 0 W/m2
02:09 67.9 °F 60.4 °F 30.05 in Calm     77% 0.00 in 0 W/m2
02:14 67.9 °F 60.4 °F 30.05 in Calm     77% 0.00 in 0 W/m2
02:19 67.9 °F 60.4 °F 30.05 in Calm     77% 0.00 in 0 W/m2
02:24 67.9 °F 60.4 °F 30.05 in Calm     77% 0.00 in 0 W/m2
02:29 67.9 °F 60.4 °F 30.05 in Calm     77% 0.00 in 0 W/m2
02:34 67.9 °F 60.4 °F 30.05 in Calm     77% 0.00 in 0 W/m2
02:39 67.9 °F 60.4 °F 30.05 in Calm     77% 0.00 in 0 W/m2
02:44 68 °F 60.5 °F 30.05 in Calm     77% 0.00 in 0 W/m2
02:49 68 °F 60.5 °F 30.05 in Calm     77% 0.00 in 0 W/m2
02:54 68 °F 60.5 °F 30.05 in Calm     77% 0.00 in 0 W/m2
02:59 68 °F 60.5 °F 30.05 in Calm     77% 0.00 in 0 W/m2
03:04 68 °F 60.5 °F 30.05 in Calm     77% 0.00 in 0 W/m2
03:09 68 °F 60.5 °F 30.05 in Calm     77% 0.00 in 0 W/m2
03:14 67.9 °F 60.5 °F 30.05 in Calm     77% 0.00 in 0 W/m2
03:19 67.9 °F 60.6 °F 30.05 in Calm     77.6% 0.00 in 0 W/m2
03:24 67.9 °F 60.8 °F 30.05 in Calm     78% 0.00 in 0 W/m2
03:29 67.9 °F 60.8 °F 30.05 in Calm     78% 0.00 in 0 W/m2
03:33 67.8 °F 60.7 °F 30.05 in Calm     78% 0.00 in 0 W/m2
Hartford County Weather
Compliments of Weather Underground - 4 mb